CST,Max TemperatureF,Mean TemperatureF,Min TemperatureF,Max Dew PointF,MeanDew PointF,Min DewpointF,Max Humidity, Mean Humidity, Min Humidity, Max Sea Level PressureIn, Mean Sea Level PressureIn, Min Sea Level PressureIn, Max VisibilityMiles, Mean VisibilityMiles, Min VisibilityMiles, Max Wind SpeedMPH, Mean Wind SpeedMPH, Max Gust SpeedMPH,PrecipitationIn, CloudCover, Events, WindDirDegrees
2012-1-1,55,47,39,30,28,21,70,47,26,30.60,30.49,30.26,10,10,10,21,13,34,0.00,0,,342
2012-1-2,53,42,32,27,23,18,80,50,24,30.79,30.69,30.63,10,10,10,13,7,17,0.00,0,,343
2012-1-3,62,45,28,28,24,19,86,53,19,30.61,30.46,30.25,10,10,10,18,4,26,0.00,0,,183
2012-1-4,60,46,33,32,28,27,75,50,31,30.33,30.26,30.19,10,10,10,14,6,20,0.00,0,,354
2012-1-5,66,49,32,36,30,25,93,58,21,30.36,30.29,30.16,10,10,10,10,3,,0.00,0,,263
2012-1-6,71,56,42,46,39,32,93,60,23,30.09,29.97,29.87,10,9,0,18,6,28,0.00,0,,199
2012-1-7,60,50,41,45,32,28,72,53,34,30.10,30.02,29.93,10,10,10,15,9,20,0.00,0,,312
2012-1-8,53,44,35,45,38,34,93,74,58,30.14,30.08,30.04,10,10,10,10,2,,0.00,2,,25
2012-1-9,46,42,37,43,39,36,93,90,87,30.24,30.11,30.06,10,5,2,21,14,29,0.86,8,,358
2012-1-10,50,42,35,37,36,34,93,85,58,30.07,29.97,29.89,10,8,2,20,10,29,0.21,8,,306
2012-1-11,64,50,35,39,35,32,93,64,32,29.86,29.76,29.64,10,10,10,16,4,23,0.05,0,,253
2012-1-12,42,36,30,28,13,3,81,43,21,30.35,30.23,30.07,10,10,10,31,19,45,0.00,0,,327
2012-1-13,55,44,32,27,21,16,75,47,21,30.31,30.25,30.22,10,10,10,13,5,17,0.00,0,,265
2012-1-14,68,52,35,27,23,14,60,38,12,30.35,30.29,30.26,10,10,10,14,6,17,0.00,0,,238
2012-1-15,68,52,35,52,34,27,75,57,38,30.28,30.22,30.09,10,10,10,21,6,28,0.00,0,,182
2012-1-16,71,63,55,55,54,48,82,70,57,30.12,30.02,29.90,10,10,10,18,11,26,0.00,5,,194
2012-1-17,60,50,41,55,38,25,94,65,40,30.30,30.15,29.95,10,10,2,23,8,32,0.00,0,,337
2012-1-18,60,44,28,32,24,21,80,56,29,30.36,30.26,30.05,10,10,10,15,6,20,0.00,0,,227
2012-1-19,73,55,37,37,34,30,87,51,20,29.98,29.90,29.85,10,10,10,16,6,20,0.00,0,,226
2012-1-20,80,61,42,46,36,27,81,50,15,29.86,29.79,29.72,10,10,5,21,6,26,0.00,0,,205
2012-1-21,51,42,32,32,28,23,81,62,44,30.12,30.03,29.94,10,10,10,17,11,23,0.00,0,,347
2012-1-22,77,57,37,55,35,12,93,62,10,29.83,29.75,29.69,10,7,3,30,10,39,0.00,1,,207
2012-1-23,62,48,35,36,32,28,87,52,27,30.17,30.08,30.02,10,10,10,10,6,,0.00,0,,57
2012-1-24,55,48,42,48,37,32,94,64,47,30.05,29.99,29.86,10,8,0,17,5,16,0.73,5,,116
2012-1-25,51,48,46,50,46,43,100,92,87,29.99,29.90,29.82,10,6,2,28,12,37,1.11,8,,349
2012-1-26,60,51,42,43,38,32,93,68,34,30.05,29.99,29.93,10,9,3,20,9,25,0.16,3,,315
2012-1-27,69,52,35,41,37,34,100,68,31,30.10,29.99,29.88,10,10,7,22,5,28,0.00,0,,196
2012-1-28,50,44,37,30,26,19,70,51,32,30.52,30.42,30.24,10,10,10,18,12,24,0.00,1,,11
2012-1-29,60,45,30,32,29,23,93,64,29,30.48,30.42,30.29,10,10,10,12,3,16,0.00,0,,179
2012-1-30,68,54,41,50,39,34,76,62,45,30.29,30.20,30.09,10,10,10,22,7,29,0.00,2,,184
2012-1-31,73,65,57,54,52,48,88,68,41,30.12,30.07,30.01,10,10,10,18,11,26,0.00,4,,203